sensor_id;sensor_type;location;lat;lon;timestamp;P1;P2;P0
49708;PMS5003;35601;55.902;13.606;2023-05-31T00:00:41;6;5;
49708;PMS5003;35601;55.902;13.606;2023-05-31T00:03:06;5;4;
49708;PMS5003;35601;55.902;13.606;2023-05-31T00:05:32;3;3;
49708;PMS5003;35601;55.902;13.606;2023-05-31T00:07:57;3;3;
49708;PMS5003;35601;55.902;13.606;2023-05-31T00:10:22;5;5;
49708;PMS5003;35601;55.902;13.606;2023-05-31T00:12:48;3;3;
49708;PMS5003;35601;55.902;13.606;2023-05-31T00:15:13;4;4;
49708;PMS5003;35601;55.902;13.606;2023-05-31T00:17:40;4;4;
49708;PMS5003;35601;55.902;13.606;2023-05-31T00:20:04;4;3;
49708;PMS5003;35601;55.902;13.606;2023-05-31T00:22:29;4;4;
49708;PMS5003;35601;55.902;13.606;2023-05-31T00:24:54;2;1;
49708;PMS5003;35601;55.902;13.606;2023-05-31T00:27:20;3;3;
49708;PMS5003;35601;55.902;13.606;2023-05-31T00:29:45;3;3;
49708;PMS5003;35601;55.902;13.606;2023-05-31T00:32:12;1;1;
49708;PMS5003;35601;55.902;13.606;2023-05-31T00:34:36;6;3;
49708;PMS5003;35601;55.902;13.606;2023-05-31T00:37:01;3;3;
49708;PMS5003;35601;55.902;13.606;2023-05-31T00:39:26;4;3;
49708;PMS5003;35601;55.902;13.606;2023-05-31T00:41:52;4;4;
49708;PMS5003;35601;55.902;13.606;2023-05-31T00:44:18;3;3;
49708;PMS5003;35601;55.902;13.606;2023-05-31T00:46:43;3;3;
49708;PMS5003;35601;55.902;13.606;2023-05-31T00:49:09;4;3;
49708;PMS5003;35601;55.902;13.606;2023-05-31T00:51:33;4;4;
49708;PMS5003;35601;55.902;13.606;2023-05-31T00:54:00;6;3;
49708;PMS5003;35601;55.902;13.606;2023-05-31T00:56:25;5;3;
49708;PMS5003;35601;55.902;13.606;2023-05-31T00:58:50;4;3;
49708;PMS5003;35601;55.902;13.606;2023-05-31T01:01:15;4;4;
49708;PMS5003;35601;55.902;13.606;2023-05-31T01:03:40;5;4;
49708;PMS5003;35601;55.902;13.606;2023-05-31T01:06:06;5;5;
49708;PMS5003;35601;55.902;13.606;2023-05-31T01:08:33;4;4;
49708;PMS5003;35601;55.902;13.606;2023-05-31T01:10:57;4;4;
49708;PMS5003;35601;55.902;13.606;2023-05-31T01:13:23;5;5;
49708;PMS5003;35601;55.902;13.606;2023-05-31T01:15:52;5;5;
49708;PMS5003;35601;55.902;13.606;2023-05-31T01:18:13;5;5;
49708;PMS5003;35601;55.902;13.606;2023-05-31T01:20:40;6;5;
49708;PMS5003;35601;55.902;13.606;2023-05-31T01:23:05;4;4;
49708;PMS5003;35601;55.902;13.606;2023-05-31T01:25:35;4;4;
49708;PMS5003;35601;55.902;13.606;2023-05-31T01:27:54;6;4;
49708;PMS5003;35601;55.902;13.606;2023-05-31T01:30:20;4;4;
49708;PMS5003;35601;55.902;13.606;2023-05-31T01:32:44;4;4;
49708;PMS5003;35601;55.902;13.606;2023-05-31T01:35:11;7;5;
49708;PMS5003;35601;55.902;13.606;2023-05-31T01:37:36;5;5;
49708;PMS5003;35601;55.902;13.606;2023-05-31T01:40:01;7;6;
49708;PMS5003;35601;55.902;13.606;2023-05-31T01:42:26;7;5;
49708;PMS5003;35601;55.902;13.606;2023-05-31T01:44:53;5;3;
49708;PMS5003;35601;55.902;13.606;2023-05-31T01:47:18;5;5;
49708;PMS5003;35601;55.902;13.606;2023-05-31T01:49:42;6;6;
49708;PMS5003;35601;55.902;13.606;2023-05-31T01:52:09;6;5;
49708;PMS5003;35601;55.902;13.606;2023-05-31T01:54:34;6;5;
49708;PMS5003;35601;55.902;13.606;2023-05-31T01:56:59;8;6;
49708;PMS5003;35601;55.902;13.606;2023-05-31T01:59:24;4;4;
49708;PMS5003;35601;55.902;13.606;2023-05-31T02:01:49;4;4;
49708;PMS5003;35601;55.902;13.606;2023-05-31T02:04:17;4;4;
49708;PMS5003;35601;55.902;13.606;2023-05-31T02:06:40;6;5;
49708;PMS5003;35601;55.902;13.606;2023-05-31T02:09:06;6;6;
49708;PMS5003;35601;55.902;13.606;2023-05-31T02:11:31;5;5;
49708;PMS5003;35601;55.902;13.606;2023-05-31T02:13:56;7;4;
49708;PMS5003;35601;55.902;13.606;2023-05-31T02:16:22;4;2;
49708;PMS5003;35601;55.902;13.606;2023-05-31T02:18:47;5;5;
49708;PMS5003;35601;55.902;13.606;2023-05-31T02:21:12;7;6;
49708;PMS5003;35601;55.902;13.606;2023-05-31T02:23:38;6;5;
49708;PMS5003;35601;55.902;13.606;2023-05-31T02:26:03;6;5;
49708;PMS5003;35601;55.902;13.606;2023-05-31T02:28:28;5;4;
49708;PMS5003;35601;55.902;13.606;2023-05-31T02:30:54;4;4;
49708;PMS5003;35601;55.902;13.606;2023-05-31T02:33:20;6;5;
49708;PMS5003;35601;55.902;13.606;2023-05-31T02:35:44;4;4;
49708;PMS5003;35601;55.902;13.606;2023-05-31T02:38:11;5;5;
49708;PMS5003;35601;55.902;13.606;2023-05-31T02:40:35;5;5;
49708;PMS5003;35601;55.902;13.606;2023-05-31T02:43:01;5;5;
49708;PMS5003;35601;55.902;13.606;2023-05-31T02:45:27;5;4;
49708;PMS5003;35601;55.902;13.606;2023-05-31T02:47:52;7;7;
49708;PMS5003;35601;55.902;13.606;2023-05-31T02:50:17;7;5;
49708;PMS5003;35601;55.902;13.606;2023-05-31T02:52:42;7;5;
49708;PMS5003;35601;55.902;13.606;2023-05-31T02:55:09;5;5;
49708;PMS5003;35601;55.902;13.606;2023-05-31T02:57:33;6;6;
49708;PMS5003;35601;55.902;13.606;2023-05-31T03:00:00;10;8;
49708;PMS5003;35601;55.902;13.606;2023-05-31T03:02:23;6;6;
49708;PMS5003;35601;55.902;13.606;2023-05-31T03:04:48;3;3;
49708;PMS5003;35601;55.902;13.606;2023-05-31T03:07:14;6;5;
49708;PMS5003;35601;55.902;13.606;2023-05-31T03:09:39;6;6;
49708;PMS5003;35601;55.902;13.606;2023-05-31T03:12:05;7;6;
49708;PMS5003;35601;55.902;13.606;2023-05-31T03:14:31;4;4;
49708;PMS5003;35601;55.902;13.606;2023-05-31T03:16:56;7;7;
49708;PMS5003;35601;55.902;13.606;2023-05-31T03:19:21;5;4;
49708;PMS5003;35601;55.902;13.606;2023-05-31T03:21:46;5;5;
49708;PMS5003;35601;55.902;13.606;2023-05-31T03:24:11;7;6;
49708;PMS5003;35601;55.902;13.606;2023-05-31T03:26:37;7;7;
49708;PMS5003;35601;55.902;13.606;2023-05-31T03:29:03;8;6;
49708;PMS5003;35601;55.902;13.606;2023-05-31T03:31:28;6;6;
49708;PMS5003;35601;55.902;13.606;2023-05-31T03:33:53;6;5;
49708;PMS5003;35601;55.902;13.606;2023-05-31T03:36:18;7;6;
49708;PMS5003;35601;55.902;13.606;2023-05-31T03:38:43;6;6;
49708;PMS5003;35601;55.902;13.606;2023-05-31T03:41:09;7;5;
49708;PMS5003;35601;55.902;13.606;2023-05-31T03:43:34;11;8;
49708;PMS5003;35601;55.902;13.606;2023-05-31T03:46:00;5;4;
49708;PMS5003;35601;55.902;13.606;2023-05-31T03:48:25;7;6;
49708;PMS5003;35601;55.902;13.606;2023-05-31T03:50:51;6;5;
49708;PMS5003;35601;55.902;13.606;2023-05-31T03:53:16;10;8;
49708;PMS5003;35601;55.902;13.606;2023-05-31T03:55:42;6;6;
49708;PMS5003;35601;55.902;13.606;2023-05-31T03:58:07;6;6;
49708;PMS5003;35601;55.902;13.606;2023-05-31T04:00:32;6;6;
49708;PMS5003;35601;55.902;13.606;2023-05-31T04:02:57;10;8;
49708;PMS5003;35601;55.902;13.606;2023-05-31T04:05:23;8;7;
49708;PMS5003;35601;55.902;13.606;2023-05-31T04:07:48;6;6;
49708;PMS5003;35601;55.902;13.606;2023-05-31T04:10:14;8;6;
49708;PMS5003;35601;55.902;13.606;2023-05-31T04:12:39;6;6;
49708;PMS5003;35601;55.902;13.606;2023-05-31T04:15:05;5;4;
49708;PMS5003;35601;55.902;13.606;2023-05-31T04:17:30;7;7;
49708;PMS5003;35601;55.902;13.606;2023-05-31T04:19:55;6;6;
49708;PMS5003;35601;55.902;13.606;2023-05-31T04:22:20;6;6;
49708;PMS5003;35601;55.902;13.606;2023-05-31T04:24:46;7;7;
49708;PMS5003;35601;55.902;13.606;2023-05-31T04:27:11;9;9;
49708;PMS5003;35601;55.902;13.606;2023-05-31T04:29:37;11;9;
49708;PMS5003;35601;55.902;13.606;2023-05-31T04:32:02;10;9;
49708;PMS5003;35601;55.902;13.606;2023-05-31T04:34:27;9;7;
49708;PMS5003;35601;55.902;13.606;2023-05-31T04:36:52;6;6;
49708;PMS5003;35601;55.902;13.606;2023-05-31T04:39:18;6;6;
49708;PMS5003;35601;55.902;13.606;2023-05-31T04:41:43;10;7;
49708;PMS5003;35601;55.902;13.606;2023-05-31T04:44:10;6;5;
49708;PMS5003;35601;55.902;13.606;2023-05-31T04:46:33;6;6;
49708;PMS5003;35601;55.902;13.606;2023-05-31T04:48:58;7;7;
49708;PMS5003;35601;55.902;13.606;2023-05-31T04:51:24;8;7;
49708;PMS5003;35601;55.902;13.606;2023-05-31T04:53:49;9;7;
49708;PMS5003;35601;55.902;13.606;2023-05-31T04:56:14;7;7;
49708;PMS5003;35601;55.902;13.606;2023-05-31T04:58:39;6;4;
49708;PMS5003;35601;55.902;13.606;2023-05-31T05:01:05;7;6;
49708;PMS5003;35601;55.902;13.606;2023-05-31T05:03:30;8;7;
49708;PMS5003;35601;55.902;13.606;2023-05-31T05:05:56;5;5;
49708;PMS5003;35601;55.902;13.606;2023-05-31T05:08:20;8;8;
49708;PMS5003;35601;55.902;13.606;2023-05-31T05:10:46;8;8;
49708;PMS5003;35601;55.902;13.606;2023-05-31T05:13:12;6;5;
49708;PMS5003;35601;55.902;13.606;2023-05-31T05:15:39;5;5;
49708;PMS5003;35601;55.902;13.606;2023-05-31T05:18:02;9;6;
49708;PMS5003;35601;55.902;13.606;2023-05-31T05:20:28;6;6;
49708;PMS5003;35601;55.902;13.606;2023-05-31T05:22:53;7;7;
49708;PMS5003;35601;55.902;13.606;2023-05-31T05:25:19;7;6;
49708;PMS5003;35601;55.902;13.606;2023-05-31T05:27:44;6;5;
49708;PMS5003;35601;55.902;13.606;2023-05-31T05:30:10;8;6;
49708;PMS5003;35601;55.902;13.606;2023-05-31T05:32:35;7;5;
49708;PMS5003;35601;55.902;13.606;2023-05-31T05:35:00;5;4;
49708;PMS5003;35601;55.902;13.606;2023-05-31T05:37:25;7;7;
49708;PMS5003;35601;55.902;13.606;2023-05-31T05:39:53;7;5;
49708;PMS5003;35601;55.902;13.606;2023-05-31T05:42:16;7;6;
49708;PMS5003;35601;55.902;13.606;2023-05-31T05:44:43;7;6;
49708;PMS5003;35601;55.902;13.606;2023-05-31T05:47:06;5;5;
49708;PMS5003;35601;55.902;13.606;2023-05-31T05:49:31;6;4;
49708;PMS5003;35601;55.902;13.606;2023-05-31T05:51:59;4;3;
49708;PMS5003;35601;55.902;13.606;2023-05-31T05:54:23;6;5;
49708;PMS5003;35601;55.902;13.606;2023-05-31T05:56:47;7;7;
49708;PMS5003;35601;55.902;13.606;2023-05-31T05:59:12;11;7;
49708;PMS5003;35601;55.902;13.606;2023-05-31T06:01:37;6;6;
49708;PMS5003;35601;55.902;13.606;2023-05-31T06:04:02;6;5;
49708;PMS5003;35601;55.902;13.606;2023-05-31T06:06:28;5;5;
49708;PMS5003;35601;55.902;13.606;2023-05-31T06:08:53;5;5;
49708;PMS5003;35601;55.902;13.606;2023-05-31T06:11:18;5;5;
49708;PMS5003;35601;55.902;13.606;2023-05-31T06:13:43;6;6;
49708;PMS5003;35601;55.902;13.606;2023-05-31T06:16:08;7;7;
49708;PMS5003;35601;55.902;13.606;2023-05-31T06:18:34;7;5;
49708;PMS5003;35601;55.902;13.606;2023-05-31T06:20:59;5;5;
49708;PMS5003;35601;55.902;13.606;2023-05-31T06:23:24;4;3;
49708;PMS5003;35601;55.902;13.606;2023-05-31T06:25:49;8;6;
49708;PMS5003;35601;55.902;13.606;2023-05-31T06:28:14;9;5;
49708;PMS5003;35601;55.902;13.606;2023-05-31T06:30:42;7;5;
49708;PMS5003;35601;55.902;13.606;2023-05-31T06:33:05;4;4;
49708;PMS5003;35601;55.902;13.606;2023-05-31T06:35:30;5;5;
49708;PMS5003;35601;55.902;13.606;2023-05-31T06:37:56;8;7;
49708;PMS5003;35601;55.902;13.606;2023-05-31T06:40:21;5;5;
49708;PMS5003;35601;55.902;13.606;2023-05-31T06:42:46;7;6;
49708;PMS5003;35601;55.902;13.606;2023-05-31T06:45:12;6;6;
49708;PMS5003;35601;55.902;13.606;2023-05-31T06:47:37;5;4;
49708;PMS5003;35601;55.902;13.606;2023-05-31T06:50:02;6;3;
49708;PMS5003;35601;55.902;13.606;2023-05-31T06:52:27;3;2;
49708;PMS5003;35601;55.902;13.606;2023-05-31T06:54:52;5;5;
49708;PMS5003;35601;55.902;13.606;2023-05-31T06:57:18;4;4;
49708;PMS5003;35601;55.902;13.606;2023-05-31T06:59:43;2;2;
49708;PMS5003;35601;55.902;13.606;2023-05-31T07:02:08;4;4;
49708;PMS5003;35601;55.902;13.606;2023-05-31T07:04:33;5;3;
49708;PMS5003;35601;55.902;13.606;2023-05-31T07:06:59;3;3;
49708;PMS5003;35601;55.902;13.606;2023-05-31T07:09:24;4;2;
49708;PMS5003;35601;55.902;13.606;2023-05-31T07:11:49;1;1;
49708;PMS5003;35601;55.902;13.606;2023-05-31T07:14:15;5;4;
49708;PMS5003;35601;55.902;13.606;2023-05-31T07:16:39;3;3;
49708;PMS5003;35601;55.902;13.606;2023-05-31T07:19:05;5;4;
49708;PMS5003;35601;55.902;13.606;2023-05-31T07:21:30;2;2;
49708;PMS5003;35601;55.902;13.606;2023-05-31T07:23:55;7;3;
49708;PMS5003;35601;55.902;13.606;2023-05-31T07:26:20;1;1;
49708;PMS5003;35601;55.902;13.606;2023-05-31T07:28:46;2;2;
49708;PMS5003;35601;55.902;13.606;2023-05-31T07:31:11;6;3;
49708;PMS5003;35601;55.902;13.606;2023-05-31T07:33:35;1;1;
49708;PMS5003;35601;55.902;13.606;2023-05-31T07:36:01;3;3;
49708;PMS5003;35601;55.902;13.606;2023-05-31T07:38:26;4;3;
49708;PMS5003;35601;55.902;13.606;2023-05-31T07:40:51;1;1;
49708;PMS5003;35601;55.902;13.606;2023-05-31T07:43:16;2;2;
49708;PMS5003;35601;55.902;13.606;2023-05-31T07:45:41;2;2;
49708;PMS5003;35601;55.902;13.606;2023-05-31T07:48:06;5;3;
49708;PMS5003;35601;55.902;13.606;2023-05-31T07:50:31;4;3;
49708;PMS5003;35601;55.902;13.606;2023-05-31T07:52:56;4;2;
49708;PMS5003;35601;55.902;13.606;2023-05-31T07:55:22;2;2;
49708;PMS5003;35601;55.902;13.606;2023-05-31T07:57:47;0;0;
49708;PMS5003;35601;55.902;13.606;2023-05-31T08:00:12;5;3;
49708;PMS5003;35601;55.902;13.606;2023-05-31T08:02:37;3;2;
49708;PMS5003;35601;55.902;13.606;2023-05-31T08:05:02;2;2;
49708;PMS5003;35601;55.902;13.606;2023-05-31T08:07:27;3;3;
49708;PMS5003;35601;55.902;13.606;2023-05-31T08:09:52;2;2;
49708;PMS5003;35601;55.902;13.606;2023-05-31T08:12:17;4;2;
49708;PMS5003;35601;55.902;13.606;2023-05-31T08:14:44;2;0;
49708;PMS5003;35601;55.902;13.606;2023-05-31T08:17:07;2;2;
49708;PMS5003;35601;55.902;13.606;2023-05-31T08:19:34;1;1;
49708;PMS5003;35601;55.902;13.606;2023-05-31T08:21:59;0;0;
49708;PMS5003;35601;55.902;13.606;2023-05-31T08:24:23;1;1;
49708;PMS5003;35601;55.902;13.606;2023-05-31T08:26:48;4;2;
49708;PMS5003;35601;55.902;13.606;2023-05-31T08:29:13;2;1;
49708;PMS5003;35601;55.902;13.606;2023-05-31T08:31:38;1;1;
49708;PMS5003;35601;55.902;13.606;2023-05-31T08:34:03;1;1;
49708;PMS5003;35601;55.902;13.606;2023-05-31T08:36:28;0;0;
49708;PMS5003;35601;55.902;13.606;2023-05-31T08:38:53;2;2;
49708;PMS5003;35601;55.902;13.606;2023-05-31T08:41:21;2;2;
49708;PMS5003;35601;55.902;13.606;2023-05-31T08:43:44;1;1;
49708;PMS5003;35601;55.902;13.606;2023-05-31T08:46:11;1;1;
49708;PMS5003;35601;55.902;13.606;2023-05-31T08:48:35;2;2;
49708;PMS5003;35601;55.902;13.606;2023-05-31T08:51:01;1;1;
49708;PMS5003;35601;55.902;13.606;2023-05-31T08:53:26;1;1;
49708;PMS5003;35601;55.902;13.606;2023-05-31T08:55:50;2;1;
49708;PMS5003;35601;55.902;13.606;2023-05-31T08:58:15;1;1;
49708;PMS5003;35601;55.902;13.606;2023-05-31T09:00:42;2;2;
49708;PMS5003;35601;55.902;13.606;2023-05-31T09:03:08;0;0;
49708;PMS5003;35601;55.902;13.606;2023-05-31T09:05:30;3;2;
49708;PMS5003;35601;55.902;13.606;2023-05-31T09:07:55;1;1;
49708;PMS5003;35601;55.902;13.606;2023-05-31T09:10:20;2;2;
49708;PMS5003;35601;55.902;13.606;2023-05-31T09:12:47;1;1;
49708;PMS5003;35601;55.902;13.606;2023-05-31T09:15:12;2;2;
49708;PMS5003;35601;55.902;13.606;2023-05-31T09:17:36;1;1;
49708;PMS5003;35601;55.902;13.606;2023-05-31T09:20:03;3;2;
49708;PMS5003;35601;55.902;13.606;2023-05-31T09:24:55;2;2;
49708;PMS5003;35601;55.902;13.606;2023-05-31T09:27:16;2;2;
49708;PMS5003;35601;55.902;13.606;2023-05-31T09:29:43;1;1;
49708;PMS5003;35601;55.902;13.606;2023-05-31T09:32:07;0;0;
49708;PMS5003;35601;55.902;13.606;2023-05-31T09:34:33;0;0;
49708;PMS5003;35601;55.902;13.606;2023-05-31T09:36:57;0;0;
49708;PMS5003;35601;55.902;13.606;2023-05-31T09:39:23;1;1;
49708;PMS5003;35601;55.902;13.606;2023-05-31T09:41:49;2;1;
49708;PMS5003;35601;55.902;13.606;2023-05-31T09:44:12;1;1;
49708;PMS5003;35601;55.902;13.606;2023-05-31T09:46:37;0;0;
49708;PMS5003;35601;55.902;13.606;2023-05-31T09:49:03;0;0;
49708;PMS5003;35601;55.902;13.606;2023-05-31T09:51:27;1;1;
49708;PMS5003;35601;55.902;13.606;2023-05-31T09:53:54;1;0;
49708;PMS5003;35601;55.902;13.606;2023-05-31T09:56:19;3;1;
49708;PMS5003;35601;55.902;13.606;2023-05-31T09:58:42;0;0;
49708;PMS5003;35601;55.902;13.606;2023-05-31T10:01:07;0;0;
49708;PMS5003;35601;55.902;13.606;2023-05-31T10:03:32;3;1;
49708;PMS5003;35601;55.902;13.606;2023-05-31T10:05:57;1;1;
49708;PMS5003;35601;55.902;13.606;2023-05-31T10:08:23;0;0;
49708;PMS5003;35601;55.902;13.606;2023-05-31T10:10:48;1;1;
49708;PMS5003;35601;55.902;13.606;2023-05-31T10:13:13;2;2;
49708;PMS5003;35601;55.902;13.606;2023-05-31T10:15:38;2;2;
49708;PMS5003;35601;55.902;13.606;2023-05-31T10:18:05;3;3;
49708;PMS5003;35601;55.902;13.606;2023-05-31T10:20:32;2;2;
49708;PMS5003;35601;55.902;13.606;2023-05-31T10:22:55;2;2;
49708;PMS5003;35601;55.902;13.606;2023-05-31T10:25:22;7;3;
49708;PMS5003;35601;55.902;13.606;2023-05-31T10:27:44;1;1;
49708;PMS5003;35601;55.902;13.606;2023-05-31T10:30:09;3;2;
49708;PMS5003;35601;55.902;13.606;2023-05-31T10:32:34;3;3;
49708;PMS5003;35601;55.902;13.606;2023-05-31T10:34:59;6;3;
49708;PMS5003;35601;55.902;13.606;2023-05-31T10:37:24;2;2;
49708;PMS5003;35601;55.902;13.606;2023-05-31T10:39:52;4;4;
49708;PMS5003;35601;55.902;13.606;2023-05-31T10:42:14;6;3;
49708;PMS5003;35601;55.902;13.606;2023-05-31T10:44:42;4;4;
49708;PMS5003;35601;55.902;13.606;2023-05-31T10:47:05;4;4;
49708;PMS5003;35601;55.902;13.606;2023-05-31T10:49:29;3;3;
49708;PMS5003;35601;55.902;13.606;2023-05-31T10:52:03;4;4;
49708;PMS5003;35601;55.902;13.606;2023-05-31T10:54:20;6;4;
49708;PMS5003;35601;55.902;13.606;2023-05-31T10:59:09;3;3;
49708;PMS5003;35601;55.902;13.606;2023-05-31T11:01:34;5;5;
49708;PMS5003;35601;55.902;13.606;2023-05-31T11:04:01;8;5;
49708;PMS5003;35601;55.902;13.606;2023-05-31T11:06:25;3;3;
49708;PMS5003;35601;55.902;13.606;2023-05-31T11:08:56;6;6;
49708;PMS5003;35601;55.902;13.606;2023-05-31T11:16:05;6;5;
49708;PMS5003;35601;55.902;13.606;2023-05-31T11:18:30;6;5;
49708;PMS5003;35601;55.902;13.606;2023-05-31T11:20:56;5;5;
49708;PMS5003;35601;55.902;13.606;2023-05-31T11:23:24;5;4;
49708;PMS5003;35601;55.902;13.606;2023-05-31T11:28:10;7;6;
49708;PMS5003;35601;55.902;13.606;2023-05-31T11:30:37;6;5;
49708;PMS5003;35601;55.902;13.606;2023-05-31T11:33:01;6;5;
49708;PMS5003;35601;55.902;13.606;2023-05-31T11:35:26;4;4;
49708;PMS5003;35601;55.902;13.606;2023-05-31T11:40:17;7;7;
49708;PMS5003;35601;55.902;13.606;2023-05-31T11:42:43;7;7;
49708;PMS5003;35601;55.902;13.606;2023-05-31T11:45:07;5;5;
49708;PMS5003;35601;55.902;13.606;2023-05-31T11:47:32;5;5;
49708;PMS5003;35601;55.902;13.606;2023-05-31T11:49:56;8;6;
49708;PMS5003;35601;55.902;13.606;2023-05-31T11:52:21;10;6;
49708;PMS5003;35601;55.902;13.606;2023-05-31T11:54:48;5;5;
49708;PMS5003;35601;55.902;13.606;2023-05-31T11:57:14;6;5;
49708;PMS5003;35601;55.902;13.606;2023-05-31T11:59:37;6;5;
49708;PMS5003;35601;55.902;13.606;2023-05-31T12:02:02;7;5;
49708;PMS5003;35601;55.902;13.606;2023-05-31T12:04:27;6;5;
49708;PMS5003;35601;55.902;13.606;2023-05-31T12:06:52;5;5;
49708;PMS5003;35601;55.902;13.606;2023-05-31T12:09:17;6;5;
49708;PMS5003;35601;55.902;13.606;2023-05-31T12:11:42;7;7;
49708;PMS5003;35601;55.902;13.606;2023-05-31T12:14:11;7;7;
49708;PMS5003;35601;55.902;13.606;2023-05-31T12:16:33;9;7;
49708;PMS5003;35601;55.902;13.606;2023-05-31T12:18:58;7;5;
49708;PMS5003;35601;55.902;13.606;2023-05-31T12:21:24;7;4;
49708;PMS5003;35601;55.902;13.606;2023-05-31T12:23:50;8;7;
49708;PMS5003;35601;55.902;13.606;2023-05-31T12:26:14;10;8;
49708;PMS5003;35601;55.902;13.606;2023-05-31T12:28:39;6;6;
49708;PMS5003;35601;55.902;13.606;2023-05-31T12:31:06;7;6;
49708;PMS5003;35601;55.902;13.606;2023-05-31T12:33:30;7;7;
49708;PMS5003;35601;55.902;13.606;2023-05-31T12:35:55;10;7;
49708;PMS5003;35601;55.902;13.606;2023-05-31T12:38:20;11;8;
49708;PMS5003;35601;55.902;13.606;2023-05-31T12:40:45;9;6;
49708;PMS5003;35601;55.902;13.606;2023-05-31T12:43:10;6;6;
49708;PMS5003;35601;55.902;13.606;2023-05-31T12:45:39;8;7;
49708;PMS5003;35601;55.902;13.606;2023-05-31T12:48:00;5;4;
49708;PMS5003;35601;55.902;13.606;2023-05-31T12:50:27;8;6;
49708;PMS5003;35601;55.902;13.606;2023-05-31T12:52:54;6;6;
49708;PMS5003;35601;55.902;13.606;2023-05-31T12:55:16;8;6;
49708;PMS5003;35601;55.902;13.606;2023-05-31T12:57:41;12;8;
49708;PMS5003;35601;55.902;13.606;2023-05-31T13:00:08;7;7;
49708;PMS5003;35601;55.902;13.606;2023-05-31T13:02:32;10;9;
49708;PMS5003;35601;55.902;13.606;2023-05-31T13:04:57;7;6;
49708;PMS5003;35601;55.902;13.606;2023-05-31T13:07:22;10;5;
49708;PMS5003;35601;55.902;13.606;2023-05-31T13:09:48;5;5;
49708;PMS5003;35601;55.902;13.606;2023-05-31T13:12:15;7;6;
49708;PMS5003;35601;55.902;13.606;2023-05-31T13:14:38;5;5;
49708;PMS5003;35601;55.902;13.606;2023-05-31T13:17:04;6;6;
49708;PMS5003;35601;55.902;13.606;2023-05-31T13:19:29;6;5;
49708;PMS5003;35601;55.902;13.606;2023-05-31T13:21:54;7;7;
49708;PMS5003;35601;55.902;13.606;2023-05-31T13:24:19;8;7;
49708;PMS5003;35601;55.902;13.606;2023-05-31T13:26:44;8;7;
49708;PMS5003;35601;55.902;13.606;2023-05-31T13:29:09;10;7;
49708;PMS5003;35601;55.902;13.606;2023-05-31T13:31:36;8;6;
49708;PMS5003;35601;55.902;13.606;2023-05-31T13:34:01;6;5;
49708;PMS5003;35601;55.902;13.606;2023-05-31T13:36:25;11;5;
49708;PMS5003;35601;55.902;13.606;2023-05-31T13:38:50;9;6;
49708;PMS5003;35601;55.902;13.606;2023-05-31T13:41:15;10;6;
49708;PMS5003;35601;55.902;13.606;2023-05-31T13:43:40;6;5;
49708;PMS5003;35601;55.902;13.606;2023-05-31T13:46:05;9;6;
49708;PMS5003;35601;55.902;13.606;2023-05-31T13:48:31;8;8;
49708;PMS5003;35601;55.902;13.606;2023-05-31T13:50:56;9;6;
49708;PMS5003;35601;55.902;13.606;2023-05-31T13:53:23;5;5;
49708;PMS5003;35601;55.902;13.606;2023-05-31T13:55:47;9;5;
49708;PMS5003;35601;55.902;13.606;2023-05-31T13:58:12;8;8;
49708;PMS5003;35601;55.902;13.606;2023-05-31T14:00:38;7;6;
49708;PMS5003;35601;55.902;13.606;2023-05-31T14:03:03;8;4;
49708;PMS5003;35601;55.902;13.606;2023-05-31T14:05:28;6;5;
49708;PMS5003;35601;55.902;13.606;2023-05-31T14:07:53;8;7;
49708;PMS5003;35601;55.902;13.606;2023-05-31T14:10:18;7;6;
49708;PMS5003;35601;55.902;13.606;2023-05-31T14:12:43;7;5;
49708;PMS5003;35601;55.902;13.606;2023-05-31T14:15:08;8;6;
49708;PMS5003;35601;55.902;13.606;2023-05-31T14:17:33;9;7;
49708;PMS5003;35601;55.902;13.606;2023-05-31T14:19:58;5;5;
49708;PMS5003;35601;55.902;13.606;2023-05-31T14:22:24;6;4;
49708;PMS5003;35601;55.902;13.606;2023-05-31T14:24:49;5;5;
49708;PMS5003;35601;55.902;13.606;2023-05-31T14:27:15;9;6;
49708;PMS5003;35601;55.902;13.606;2023-05-31T14:29:39;6;5;
49708;PMS5003;35601;55.902;13.606;2023-05-31T14:32:04;7;4;
49708;PMS5003;35601;55.902;13.606;2023-05-31T14:34:29;6;6;
49708;PMS5003;35601;55.902;13.606;2023-05-31T14:36:54;7;6;
49708;PMS5003;35601;55.902;13.606;2023-05-31T14:39:20;9;8;
49708;PMS5003;35601;55.902;13.606;2023-05-31T14:41:45;4;3;
49708;PMS5003;35601;55.902;13.606;2023-05-31T14:44:11;5;3;
49708;PMS5003;35601;55.902;13.606;2023-05-31T14:46:36;8;7;
49708;PMS5003;35601;55.902;13.606;2023-05-31T14:49:03;5;5;
49708;PMS5003;35601;55.902;13.606;2023-05-31T14:51:26;9;7;
49708;PMS5003;35601;55.902;13.606;2023-05-31T14:53:52;7;4;
49708;PMS5003;35601;55.902;13.606;2023-05-31T14:56:17;7;6;
49708;PMS5003;35601;55.902;13.606;2023-05-31T14:58:42;6;4;
49708;PMS5003;35601;55.902;13.606;2023-05-31T15:01:07;6;6;
49708;PMS5003;35601;55.902;13.606;2023-05-31T15:03:32;8;5;
49708;PMS5003;35601;55.902;13.606;2023-05-31T15:05:58;8;7;
49708;PMS5003;35601;55.902;13.606;2023-05-31T15:08:25;5;5;
49708;PMS5003;35601;55.902;13.606;2023-05-31T15:10:49;10;6;
49708;PMS5003;35601;55.902;13.606;2023-05-31T15:13:14;8;7;
49708;PMS5003;35601;55.902;13.606;2023-05-31T15:15:39;7;5;
49708;PMS5003;35601;55.902;13.606;2023-05-31T15:18:04;10;7;
49708;PMS5003;35601;55.902;13.606;2023-05-31T15:20:30;7;7;
49708;PMS5003;35601;55.902;13.606;2023-05-31T15:22:55;6;6;
49708;PMS5003;35601;55.902;13.606;2023-05-31T15:25:20;7;7;
49708;PMS5003;35601;55.902;13.606;2023-05-31T15:27:46;7;6;
49708;PMS5003;35601;55.902;13.606;2023-05-31T15:30:10;9;5;
49708;PMS5003;35601;55.902;13.606;2023-05-31T15:32:35;11;6;
49708;PMS5003;35601;55.902;13.606;2023-05-31T15:35:01;8;6;
49708;PMS5003;35601;55.902;13.606;2023-05-31T15:37:26;7;7;
49708;PMS5003;35601;55.902;13.606;2023-05-31T15:39:51;10;7;
49708;PMS5003;35601;55.902;13.606;2023-05-31T15:42:17;7;6;
49708;PMS5003;35601;55.902;13.606;2023-05-31T15:44:42;6;6;
49708;PMS5003;35601;55.902;13.606;2023-05-31T15:47:08;9;7;
49708;PMS5003;35601;55.902;13.606;2023-05-31T15:49:33;6;6;
49708;PMS5003;35601;55.902;13.606;2023-05-31T15:51:58;5;5;
49708;PMS5003;35601;55.902;13.606;2023-05-31T15:54:24;5;5;
49708;PMS5003;35601;55.902;13.606;2023-05-31T15:56:49;6;6;
49708;PMS5003;35601;55.902;13.606;2023-05-31T15:59:15;8;8;
49708;PMS5003;35601;55.902;13.606;2023-05-31T16:01:40;6;6;
49708;PMS5003;35601;55.902;13.606;2023-05-31T16:04:05;7;6;
49708;PMS5003;35601;55.902;13.606;2023-05-31T16:06:30;5;5;
49708;PMS5003;35601;55.902;13.606;2023-05-31T16:08:56;8;7;
49708;PMS5003;35601;55.902;13.606;2023-05-31T16:11:21;9;6;
49708;PMS5003;35601;55.902;13.606;2023-05-31T16:13:46;6;6;
49708;PMS5003;35601;55.902;13.606;2023-05-31T16:16:12;7;5;
49708;PMS5003;35601;55.902;13.606;2023-05-31T16:18:38;11;8;
49708;PMS5003;35601;55.902;13.606;2023-05-31T16:21:03;5;3;
49708;PMS5003;35601;55.902;13.606;2023-05-31T16:23:28;6;6;
49708;PMS5003;35601;55.902;13.606;2023-05-31T16:25:53;5;5;
49708;PMS5003;35601;55.902;13.606;2023-05-31T16:28:19;3;3;
49708;PMS5003;35601;55.902;13.606;2023-05-31T16:30:44;5;4;
49708;PMS5003;35601;55.902;13.606;2023-05-31T16:33:09;4;4;